Time;durP1;ratioP1;P1;durP2;ratioP2;P2;SDS_P1;SDS_P2;PMS_P1;PMS_P2;Temp;Humidity;BMP_temperature;BMP_pressure;BME280_temperature;BME280_humidity;BME280_pressure;Samples;Min_cycle;Max_cycle;Signal;HPM_P1;HPM_P2
2023/05/23 00:00:21;;;;;;;12.27;11.02;;;22.70;64.80;;;;;;4854220;55;21001;-33
2023/05/23 00:05:22;;;;;;;12.52;11.23;;;22.70;64.80;;;;;;4741983;54;21535;-36
2023/05/23 00:10:24;;;;;;;11.68;10.48;;;22.70;64.80;;;;;;4758820;55;21005;-35
2023/05/23 00:15:24;;;;;;;12.35;11.15;;;22.70;64.90;;;;;;4815917;55;21488;-42
2023/05/23 00:20:25;;;;;;;12.00;10.80;;;22.70;64.80;;;;;;4807800;55;21109;-36
2023/05/23 00:25:32;;;;;;;11.30;10.23;;;22.70;64.80;;;;;;4739483;59;21527;-36
2023/05/23 00:30:33;;;;;;;12.30;11.10;;;22.70;64.80;;;;;;4781149;55;21053;-35
2023/05/23 00:35:34;;;;;;;12.52;11.32;;;22.70;64.80;;;;;;4866149;55;21013;-32
2023/05/23 00:40:35;;;;;;;10.43;9.43;;;22.70;64.90;;;;;;4783858;55;21552;-36
2023/05/23 00:45:36;;;;;;;11.00;9.93;;;22.70;64.80;;;;;;4859364;55;21406;-37
2023/05/23 00:50:36;;;;;;;11.50;10.40;;;22.70;64.80;;;;;;4879793;55;21449;-37
2023/05/23 00:55:38;;;;;;;11.68;10.57;;;22.70;65.50;;;;;;4842770;55;21383;-36
2023/05/23 01:00:39;;;;;;;11.23;10.13;;;22.70;64.80;;;;;;4809772;55;21535;-37
2023/05/23 01:05:40;;;;;;;11.10;10.07;;;22.70;64.80;;;;;;4738993;56;21086;-39
2023/05/23 01:10:41;;;;;;;12.10;10.90;;;22.70;64.80;;;;;;4804282;55;22163;-35
2023/05/23 01:15:51;;;;;;;10.68;9.63;;;22.70;64.80;;;;;;4878778;55;21045;-36
2023/05/23 01:21:00;;;;;;;10.68;9.68;;;22.70;64.80;;;;;;4740071;59;21543;-35
2023/05/23 01:26:37;;;;;;;10.52;9.55;;;22.70;64.80;;;;;;4757060;55;21761;-35
2023/05/23 01:31:46;;;;;;;11.20;10.10;;;22.70;64.80;;;;;;4740331;59;21520;-34
2023/05/23 01:36:52;;;;;;;11.52;10.43;;;22.70;64.80;;;;;;4785652;55;21029;-31
2023/05/23 01:41:53;;;;;;;10.65;9.65;;;22.70;64.80;;;;;;4856937;54;21061;-33
2023/05/23 01:46:54;;;;;;;11.27;10.18;;;22.70;64.80;;;;;;4773709;55;21006;-34
2023/05/23 01:51:55;;;;;;;11.43;10.35;;;22.70;64.80;;;;;;4857024;55;21084;-34
2023/05/23 01:56:57;;;;;;;11.10;10.00;;;22.70;64.70;;;;;;4740023;59;21056;-35
2023/05/23 02:01:58;;;;;;;10.77;9.70;;;22.70;64.70;;;;;;4740137;59;21014;-36
2023/05/23 02:06:59;;;;;;;10.68;9.60;;;22.70;64.70;;;;;;4747439;55;21005;-36
2023/05/23 02:12:00;;;;;;;10.50;9.50;;;22.70;64.70;;;;;;4740080;59;21507;-32
2023/05/23 02:17:00;;;;;;;10.13;9.07;;;22.70;64.70;;;;;;4774598;55;21077;-34
2023/05/23 02:22:02;;;;;;;10.20;9.15;;;22.70;64.70;;;;;;4744807;55;21105;-36
2023/05/23 02:27:03;;;;;;;10.82;9.82;;;22.70;64.60;;;;;;4852936;55;21603;-32
2023/05/23 02:32:04;;;;;;;9.60;8.70;;;22.70;64.70;;;;;;4750693;55;21022;-35
2023/05/23 02:37:05;;;;;;;10.30;9.30;;;22.70;64.70;;;;;;4818904;55;21060;-36
2023/05/23 02:42:06;;;;;;;10.05;9.07;;;22.70;64.70;;;;;;4792146;54;21116;-33
2023/05/23 02:47:07;;;;;;;10.23;9.23;;;22.70;64.60;;;;;;4740788;55;21551;-37
2023/05/23 02:52:08;;;;;;;9.93;8.93;;;22.70;64.60;;;;;;4777271;55;21066;-35
2023/05/23 02:57:09;;;;;;;9.98;9.07;;;22.70;64.60;;;;;;4765877;55;21476;-37
2023/05/23 03:02:10;;;;;;;9.25;8.40;;;22.70;64.60;;;;;;4754304;55;21587;-37
2023/05/23 03:07:12;;;;;;;9.93;9.02;;;22.70;64.70;;;;;;4754507;55;21028;-35
2023/05/23 03:12:13;;;;;;;9.38;8.48;;;22.70;64.60;;;;;;4740395;59;21452;-35
2023/05/23 03:17:15;;;;;;;9.93;8.95;;;22.70;64.60;;;;;;4740444;56;21612;-35
2023/05/23 03:22:16;;;;;;;9.75;8.85;;;22.70;64.70;;;;;;4989029;55;21527;-32
2023/05/23 03:27:16;;;;;;;9.73;8.82;;;22.70;64.60;;;;;;4739888;59;21049;-36
2023/05/23 03:32:17;;;;;;;9.65;8.75;;;22.70;64.60;;;;;;4881408;55;21025;-33
2023/05/23 03:37:18;;;;;;;9.45;8.55;;;22.70;64.60;;;;;;4818661;55;21017;-32
2023/05/23 03:42:19;;;;;;;8.90;8.10;;;22.70;64.60;;;;;;4754948;55;21018;-37
2023/05/23 03:47:20;;;;;;;9.90;9.00;;;22.70;64.50;;;;;;4768074;55;21472;-35
2023/05/23 03:52:21;;;;;;;9.77;8.88;;;22.70;64.50;;;;;;4852724;55;21017;-35
2023/05/23 03:57:22;;;;;;;9.80;8.85;;;22.70;64.60;;;;;;4761812;55;20986;-36
2023/05/23 04:02:23;;;;;;;9.18;8.27;;;22.70;64.50;;;;;;4758722;55;21497;-36
2023/05/23 04:07:25;;;;;;;9.27;8.38;;;22.70;64.60;;;;;;4780231;55;21057;-34
2023/05/23 04:12:26;;;;;;;10.10;8.70;;;22.70;64.60;;;;;;4817023;55;21017;-34
2023/05/23 04:17:28;;;;;;;9.45;8.55;;;22.70;64.50;;;;;;4770355;55;21053;-39
2023/05/23 04:22:29;;;;;;;9.45;8.55;;;22.70;64.50;;;;;;4805386;55;21492;-32
2023/05/23 04:27:30;;;;;;;9.35;8.48;;;22.70;64.50;;;;;;4835201;55;21081;-40
2023/05/23 04:32:31;;;;;;;8.73;7.93;;;22.70;64.40;;;;;;4778356;55;21532;-35
2023/05/23 04:37:32;;;;;;;9.45;8.63;;;22.70;64.40;;;;;;4810246;55;21093;-37
2023/05/23 04:42:32;;;;;;;8.60;7.80;;;22.70;64.40;;;;;;4792250;55;21101;-36
2023/05/23 04:47:33;;;;;;;9.07;8.18;;;22.70;64.40;;;;;;4780977;55;21009;-37
2023/05/23 04:52:34;;;;;;;9.00;8.10;;;22.70;64.30;;;;;;4829950;55;21006;-36
2023/05/23 04:57:36;;;;;;;9.50;8.13;;;22.70;64.20;;;;;;4890968;55;21026;-34
2023/05/23 05:02:38;;;;;;;8.60;7.80;;;22.60;64.20;;;;;;4754172;55;21472;-36
2023/05/23 05:07:39;;;;;;;8.93;8.13;;;22.60;64.10;;;;;;4739744;59;21041;-36
2023/05/23 05:12:40;;;;;;;9.50;8.50;;;22.60;64.10;;;;;;4783055;55;21545;-36
2023/05/23 05:17:41;;;;;;;8.68;7.80;;;22.60;64.10;;;;;;4754747;55;21050;-35
2023/05/23 05:22:43;;;;;;;8.93;8.02;;;22.60;63.90;;;;;;4740004;59;21502;-34
2023/05/23 05:27:44;;;;;;;9.52;8.63;;;22.60;63.90;;;;;;4817667;55;21506;-32
2023/05/23 05:32:46;;;;;;;9.98;8.32;;;22.60;63.90;;;;;;4740596;55;21519;-35
2023/05/23 05:37:47;;;;;;;9.13;8.32;;;22.60;63.80;;;;;;4747302;55;21519;-38
2023/05/23 05:42:48;;;;;;;9.40;8.45;;;22.60;63.90;;;;;;4767563;55;21049;-37
2023/05/23 05:47:48;;;;;;;9.60;8.20;;;22.60;63.80;;;;;;4774483;55;21061;-36
2023/05/23 05:52:49;;;;;;;8.65;7.85;;;22.60;63.70;;;;;;4840808;55;21081;-37
2023/05/23 05:57:50;;;;;;;9.32;8.40;;;22.60;63.70;;;;;;4739882;59;21647;-33
2023/05/23 06:02:53;;;;;;;9.00;8.20;;;22.60;63.60;;;;;;4739733;59;21185;-35
2023/05/23 06:07:54;;;;;;;9.80;8.25;;;22.60;63.60;;;;;;4771722;55;21885;-39
2023/05/23 06:12:55;;;;;;;9.18;8.27;;;22.60;63.60;;;;;;4933098;55;21060;-32
2023/05/23 06:17:56;;;;;;;9.35;8.13;;;22.60;63.50;;;;;;4740267;59;21037;-36
2023/05/23 06:22:58;;;;;;;8.95;8.07;;;22.60;63.50;;;;;;4832656;55;21080;-33
2023/05/23 06:28:00;;;;;;;9.75;8.75;;;22.60;63.50;;;;;;4893461;55;21555;-36
2023/05/23 06:33:01;;;;;;;9.10;8.30;;;22.60;63.40;;;;;;4743741;55;21540;-32
2023/05/23 06:38:02;;;;;;;9.55;8.65;;;22.60;63.30;;;;;;4748496;55;21112;-37
2023/05/23 06:43:02;;;;;;;9.65;8.73;;;22.70;63.40;;;;;;4768522;55;21030;-33
2023/05/23 06:48:04;;;;;;;10.20;9.20;;;22.70;63.30;;;;;;4761859;55;21555;-37
2023/05/23 06:53:05;;;;;;;9.77;8.77;;;22.70;63.30;;;;;;4811840;55;21120;-35
2023/05/23 06:58:06;;;;;;;9.45;8.50;;;22.70;63.20;;;;;;4753010;55;21515;-34
2023/05/23 07:03:07;;;;;;;10.43;9.23;;;22.70;63.20;;;;;;4802795;55;21480;-33
2023/05/23 07:08:09;;;;;;;10.27;9.15;;;22.70;63.20;;;;;;4762268;55;21025;-37
2023/05/23 07:13:10;;;;;;;10.70;9.48;;;22.70;63.20;;;;;;4779206;55;21435;-35
2023/05/23 07:18:11;;;;;;;9.45;8.55;;;22.70;63.20;;;;;;4798739;55;21117;-33
2023/05/23 07:23:12;;;;;;;10.15;8.48;;;22.70;63.10;;;;;;4879916;55;21452;-36
2023/05/23 07:28:13;;;;;;;9.82;8.90;;;22.70;63.10;;;;;;4739776;59;21002;-32
2023/05/23 07:33:14;;;;;;;9.95;8.98;;;22.70;64.00;;;;;;4758848;55;21016;-33
2023/05/23 07:38:15;;;;;;;10.32;9.20;;;22.70;63.20;;;;;;4739806;59;21109;-33
2023/05/23 07:43:15;;;;;;;9.50;8.50;;;22.70;63.20;;;;;;4787617;55;21487;-32
2023/05/23 07:48:19;;;;;;;10.43;8.68;;;22.70;63.20;;;;;;4759652;55;21053;-30
2023/05/23 07:53:21;;;;;;;11.07;9.00;;;22.70;63.20;;;;;;4815216;55;21475;-34
2023/05/23 07:58:25;;;;;;;9.93;8.93;;;22.70;63.20;;;;;;4811831;55;20997;-34
2023/05/23 08:03:25;;;;;;;10.05;9.02;;;22.70;63.20;;;;;;4811057;55;21085;-33
2023/05/23 08:08:26;;;;;;;10.80;9.70;;;22.70;63.20;;;;;;4740148;59;21556;-32
2023/05/23 08:13:27;;;;;;;10.48;9.35;;;22.70;63.30;;;;;;4739963;59;21081;-34
2023/05/23 08:18:29;;;;;;;11.07;9.40;;;22.70;63.30;;;;;;4748920;55;21515;-33
2023/05/23 08:23:30;;;;;;;9.95;8.88;;;22.70;64.00;;;;;;4788191;55;21599;-32
2023/05/23 08:28:33;;;;;;;10.23;9.23;;;22.70;63.30;;;;;;4827621;55;20993;-34
2023/05/23 08:33:34;;;;;;;9.63;8.63;;;22.70;63.30;;;;;;4757320;55;21630;-35
2023/05/23 08:38:35;;;;;;;9.40;8.50;;;22.70;63.40;;;;;;4874203;55;21449;-37
2023/05/23 08:43:36;;;;;;;10.02;9.07;;;22.70;63.30;;;;;;4771414;55;21451;-33
2023/05/23 08:48:38;;;;;;;9.43;8.52;;;22.70;63.40;;;;;;4775219;55;22199;-37
2023/05/23 08:53:48;;;;;;;11.45;9.23;;;22.70;63.40;;;;;;4765277;55;21045;-36
2023/05/23 08:58:51;;;;;;;10.25;9.20;;;22.70;63.40;;;;;;4765834;55;21053;-34
2023/05/23 09:03:52;;;;;;;10.00;9.00;;;22.70;63.40;;;;;;4739483;59;21565;-33
2023/05/23 09:08:53;;;;;;;9.80;8.80;;;22.80;63.50;;;;;;4740467;55;21013;-33
2023/05/23 09:13:56;;;;;;;9.35;8.45;;;22.70;63.40;;;;;;4739774;59;21523;-32
2023/05/23 09:18:57;;;;;;;9.82;8.93;;;22.70;63.40;;;;;;4813541;55;21439;-34
2023/05/23 09:23:58;;;;;;;10.32;9.23;;;22.70;63.50;;;;;;4739455;59;21009;-34
2023/05/23 09:28:59;;;;;;;9.15;8.25;;;22.80;63.50;;;;;;4764642;55;21037;-35
2023/05/23 09:34:00;;;;;;;9.57;8.68;;;22.70;63.50;;;;;;4760801;55;20997;-36
2023/05/23 09:39:04;;;;;;;10.25;9.25;;;22.80;63.50;;;;;;4776805;55;21503;-32
2023/05/23 09:44:07;;;;;;;10.23;9.23;;;22.70;64.10;;;;;;4753218;55;21873;-34
2023/05/23 09:49:21;;;;;;;10.05;9.02;;;22.80;63.50;;;;;;4739674;59;21544;-38
2023/05/23 09:54:22;;;;;;;10.60;9.50;;;22.80;63.50;;;;;;4758924;55;21556;-34
2023/05/23 09:59:26;;;;;;;10.68;9.57;;;22.80;63.50;;;;;;4771019;55;21113;-33
2023/05/23 10:04:34;;;;;;;10.13;8.82;;;22.80;63.50;;;;;;4755971;55;21094;-37
2023/05/23 10:09:38;;;;;;;10.18;9.18;;;22.80;63.50;;;;;;4769678;55;21548;-34
2023/05/23 10:14:44;;;;;;;10.57;9.48;;;22.80;63.50;;;;;;4818260;55;21519;-33
2023/05/23 10:20:07;;;;;;;10.68;9.68;;;22.80;63.50;;;;;;4830585;55;21025;-32
2023/05/23 10:25:12;;;;;;;11.00;9.90;;;22.80;63.50;;;;;;4771912;55;21487;-33
2023/05/23 10:30:13;;;;;;;11.35;10.10;;;22.80;63.50;;;;;;4745224;55;21153;-32
2023/05/23 10:36:09;;;;;;;11.27;10.07;;;22.80;63.50;;;;;;4796229;55;21009;-37
2023/05/23 10:41:15;;;;;;;11.20;9.13;;;22.80;63.50;;;;;;4738095;59;21073;-27
2023/05/23 10:46:22;;;;;;;13.27;10.27;;;22.80;66.20;;;;;;4744475;55;21038;-35
2023/05/23 10:51:23;;;;;;;10.90;9.80;;;22.90;63.80;;;;;;4745913;55;21125;-30
2023/05/23 10:56:24;;;;;;;11.32;10.13;;;23.00;64.10;;;;;;4743430;55;21119;-31
2023/05/23 11:01:26;;;;;;;11.65;10.43;;;23.10;64.10;;;;;;4760106;55;21096;-35
2023/05/23 11:06:43;;;;;;;11.32;10.05;;;23.10;64.10;;;;;;4793415;55;21009;-32
2023/05/23 11:12:04;;;;;;;12.45;10.57;;;23.20;64.60;;;;;;4745129;55;21092;-34
2023/05/23 11:17:16;;;;;;;11.10;10.00;;;23.20;64.90;;;;;;4751128;55;21512;-33
2023/05/23 11:22:17;;;;;;;12.82;11.05;;;23.20;65.00;;;;;;4746251;55;21492;-33
2023/05/23 11:27:36;;;;;;;13.73;10.75;;;23.30;65.00;;;;;;4787403;55;21011;-32
2023/05/23 11:32:37;;;;;;;13.38;10.77;;;23.30;65.10;;;;;;4738268;59;21996;-30
2023/05/23 11:37:39;;;;;;;11.60;10.50;;;23.30;65.30;;;;;;4755360;55;21065;-31
2023/05/23 11:42:42;;;;;;;12.55;11.25;;;23.30;65.30;;;;;;4738186;59;21982;-33
2023/05/23 11:47:43;;;;;;;12.32;10.57;;;23.30;65.40;;;;;;4738018;59;21062;-35
2023/05/23 11:52:50;;;;;;;12.43;11.12;;;23.40;65.40;;;;;;4787063;55;21113;-32
2023/05/23 11:57:51;;;;;;;14.10;10.98;;;23.40;65.60;;;;;;4743157;55;21520;-35
2023/05/23 12:02:52;;;;;;;16.15;11.38;;;23.30;65.60;;;;;;4752522;54;21073;-30
2023/05/23 12:07:52;;;;;;;12.13;10.93;;;23.40;65.90;;;;;;4737533;59;20997;-39
2023/05/23 12:12:54;;;;;;;13.07;10.98;;;23.40;65.90;;;;;;4807841;55;21555;-31
2023/05/23 12:17:55;;;;;;;13.80;10.95;;;23.40;66.00;;;;;;4791909;55;21643;-33
2023/05/23 12:22:56;;;;;;;13.40;11.25;;;23.40;66.00;;;;;;4737498;55;21483;-32
2023/05/23 12:27:57;;;;;;;12.45;11.12;;;23.50;65.90;;;;;;4743029;55;21021;-31
2023/05/23 12:32:58;;;;;;;14.80;11.55;;;23.40;66.20;;;;;;4741514;55;21088;-36
2023/05/23 12:37:59;;;;;;;14.15;11.68;;;23.40;66.40;;;;;;4805148;55;21631;-34
2023/05/23 12:43:00;;;;;;;13.62;11.60;;;23.40;66.50;;;;;;4743942;54;21115;-29
2023/05/23 12:48:02;;;;;;;13.77;11.25;;;23.50;66.40;;;;;;4784487;55;21508;-35
2023/05/23 12:53:03;;;;;;;15.73;11.55;;;23.50;66.50;;;;;;4826240;55;21531;-32
2023/05/23 12:58:04;;;;;;;15.15;12.05;;;23.50;66.60;;;;;;4743421;55;21109;-34
2023/05/23 13:03:05;;;;;;;15.68;12.05;;;23.50;66.70;;;;;;4742195;55;21492;-29
2023/05/23 13:08:06;;;;;;;12.32;10.82;;;23.50;67.00;;;;;;4772160;55;21483;-33
2023/05/23 13:13:07;;;;;;;15.77;11.93;;;23.50;66.90;;;;;;4743188;54;21036;-34
2023/05/23 13:18:08;;;;;;;16.67;12.35;;;23.50;66.90;;;;;;4741254;55;21009;-33
2023/05/23 13:23:09;;;;;;;15.50;11.80;;;23.50;67.00;;;;;;4737402;59;21472;-32
2023/05/23 13:28:09;;;;;;;14.02;12.13;;;23.50;66.80;;;;;;4775110;55;21037;-32
2023/05/23 13:33:10;;;;;;;13.90;11.23;;;23.50;66.70;;;;;;4739595;55;21487;-37
2023/05/23 13:38:11;;;;;;;14.85;12.85;;;23.60;66.80;;;;;;4763369;55;21129;-35
2023/05/23 13:43:12;;;;;;;13.25;11.77;;;23.60;66.80;;;;;;4770940;55;21586;-33
2023/05/23 13:48:13;;;;;;;13.98;12.30;;;23.60;67.00;;;;;;4744171;55;21025;-29
2023/05/23 13:53:15;;;;;;;16.20;11.80;;;23.60;67.00;;;;;;4750408;55;21103;-31
2023/05/23 13:58:16;;;;;;;14.45;11.80;;;23.60;66.90;;;;;;4737888;59;21630;-32
2023/05/23 14:03:18;;;;;;;14.82;12.37;;;23.60;66.90;;;;;;4815788;55;21112;-33
2023/05/23 14:08:19;;;;;;;16.00;12.20;;;23.60;67.00;;;;;;4738072;59;21528;-36
2023/05/23 14:13:20;;;;;;;17.15;12.10;;;23.60;66.90;;;;;;4748066;55;21109;-34
2023/05/23 14:18:21;;;;;;;13.93;11.80;;;23.60;67.00;;;;;;4747248;55;21448;-30
2023/05/23 14:23:34;;;;;;;13.10;11.75;;;23.60;67.00;;;;;;4756473;55;21053;-37
2023/05/23 14:28:35;;;;;;;14.70;12.37;;;23.60;66.90;;;;;;4811485;55;20977;-36
2023/05/23 14:33:37;;;;;;;14.25;12.63;;;23.50;67.00;;;;;;4820578;55;21443;-38
2023/05/23 14:38:38;;;;;;;14.07;12.43;;;23.50;67.20;;;;;;4817909;55;21145;-39
2023/05/23 14:43:39;;;;;;;14.93;13.30;;;23.40;67.20;;;;;;4878708;55;21546;-34
2023/05/23 14:48:40;;;;;;;14.32;12.50;;;23.40;67.30;;;;;;4812039;55;21140;-35
2023/05/23 14:53:41;;;;;;;14.80;13.25;;;23.40;67.30;;;;;;4739028;56;21459;-34
2023/05/23 14:58:44;;;;;;;14.95;13.45;;;23.30;67.30;;;;;;4772886;55;21519;-33
2023/05/23 15:03:45;;;;;;;13.85;12.45;;;23.30;67.20;;;;;;4771488;55;21487;-34
2023/05/23 15:08:46;;;;;;;14.93;13.13;;;23.30;67.30;;;;;;4899182;54;21022;-33
2023/05/23 15:13:47;;;;;;;15.45;12.73;;;23.30;67.20;;;;;;4746212;55;21081;-34
2023/05/23 15:18:48;;;;;;;14.35;12.80;;;23.30;67.20;;;;;;4865746;55;21037;-35
2023/05/23 15:23:49;;;;;;;14.20;12.70;;;23.30;67.60;;;;;;4784392;55;21508;-35
2023/05/23 15:28:50;;;;;;;16.25;13.40;;;23.30;67.60;;;;;;4747427;55;21575;-35
2023/05/23 15:33:51;;;;;;;15.30;13.70;;;23.30;67.00;;;;;;4767761;55;21065;-38
2023/05/23 15:38:51;;;;;;;14.80;13.35;;;23.30;67.00;;;;;;4785873;55;21105;-35
2023/05/23 15:43:52;;;;;;;16.35;13.73;;;23.30;67.00;;;;;;4802234;55;21128;-32
2023/05/23 15:48:58;;;;;;;15.98;13.82;;;23.30;66.90;;;;;;4875319;55;21029;-33
2023/05/23 15:53:59;;;;;;;15.90;13.55;;;23.30;66.90;;;;;;4945871;55;21468;-34
2023/05/23 15:58:59;;;;;;;15.77;14.07;;;23.30;66.90;;;;;;4860584;55;21069;-33
2023/05/23 16:04:00;;;;;;;15.85;14.18;;;23.20;66.70;;;;;;4866281;55;21468;-33
2023/05/23 16:09:01;;;;;;;17.55;14.48;;;23.20;66.80;;;;;;4854868;55;21077;-33
2023/05/23 16:14:02;;;;;;;15.98;14.27;;;23.30;66.70;;;;;;5036929;55;21065;-34
2023/05/23 16:19:03;;;;;;;15.00;13.50;;;23.20;66.70;;;;;;4740062;59;21104;-36
2023/05/23 16:24:05;;;;;;;15.70;14.10;;;23.20;66.60;;;;;;4773666;55;21527;-38
2023/05/23 16:29:06;;;;;;;16.77;14.87;;;23.20;66.60;;;;;;4744625;55;21539;-31
2023/05/23 16:34:07;;;;;;;16.62;14.55;;;23.20;66.60;;;;;;4878376;55;21524;-33
2023/05/23 16:39:08;;;;;;;17.20;15.32;;;23.20;66.60;;;;;;4788000;55;21100;-36
2023/05/23 16:44:09;;;;;;;16.92;14.73;;;23.20;66.50;;;;;;4947112;55;21060;-32
2023/05/23 16:49:10;;;;;;;16.60;14.82;;;23.20;66.50;;;;;;4809289;55;21604;-32
2023/05/23 16:54:11;;;;;;;17.10;15.40;;;23.20;66.50;;;;;;4762004;54;21006;-32
2023/05/23 16:59:12;;;;;;;17.75;15.85;;;23.20;66.40;;;;;;4796603;55;21113;-34
2023/05/23 17:04:12;;;;;;;16.92;15.13;;;23.20;66.40;;;;;;4743282;55;21018;-37
2023/05/23 17:09:14;;;;;;;18.95;15.65;;;23.20;66.40;;;;;;4773573;55;21167;-35
2023/05/23 17:14:15;;;;;;;17.10;15.35;;;23.20;66.40;;;;;;4753248;55;21089;-34
2023/05/23 17:19:15;;;;;;;17.83;16.02;;;23.20;66.30;;;;;;4887367;54;21073;-38
2023/05/23 17:24:16;;;;;;;18.35;16.40;;;23.20;66.30;;;;;;4779428;55;21029;-35
2023/05/23 17:29:19;;;;;;;18.15;16.20;;;23.20;66.30;;;;;;4994450;55;21024;-33
2023/05/23 17:34:20;;;;;;;18.12;16.20;;;23.20;66.30;;;;;;4784829;55;21464;-33
2023/05/23 17:39:21;;;;;;;17.80;16.00;;;23.20;66.20;;;;;;4923152;55;21121;-37
2023/05/23 17:44:22;;;;;;;17.98;16.10;;;23.20;66.20;;;;;;4768817;55;20998;-33
2023/05/23 17:49:23;;;;;;;18.50;16.55;;;23.20;66.20;;;;;;4739837;59;21013;-34
2023/05/23 17:54:23;;;;;;;19.25;16.80;;;23.20;66.20;;;;;;4792645;55;21017;-37
2023/05/23 17:59:26;;;;;;;17.48;15.68;;;23.30;66.20;;;;;;4919001;55;21118;-33
2023/05/23 18:04:27;;;;;;;18.33;16.42;;;23.20;66.10;;;;;;4834303;55;21110;-33
2023/05/23 18:09:28;;;;;;;18.58;16.58;;;23.20;66.10;;;;;;4741443;55;21085;-33
2023/05/23 18:14:29;;;;;;;18.40;16.50;;;23.30;66.20;;;;;;4842519;55;20978;-34
2023/05/23 18:19:30;;;;;;;18.67;15.70;;;23.20;66.10;;;;;;4739908;59;21586;-35
2023/05/23 18:24:31;;;;;;;18.10;16.23;;;23.20;66.10;;;;;;4739096;59;21068;-31
2023/05/23 18:29:31;;;;;;;18.48;16.58;;;23.20;66.10;;;;;;4739999;59;21479;-32
2023/05/23 18:34:32;;;;;;;17.95;16.02;;;23.30;66.20;;;;;;4739828;59;20997;-34
2023/05/23 18:39:33;;;;;;;18.05;16.25;;;23.20;66.10;;;;;;4777657;55;21037;-37
2023/05/23 18:44:34;;;;;;;17.85;16.15;;;23.20;66.10;;;;;;4758899;55;21041;-33
2023/05/23 18:49:36;;;;;;;18.85;16.85;;;23.20;66.10;;;;;;4932331;55;21009;-33
2023/05/23 18:54:37;;;;;;;19.15;17.15;;;23.20;66.10;;;;;;4850245;55;21527;-34
2023/05/23 18:59:38;;;;;;;18.10;16.27;;;23.20;66.10;;;;;;4739895;59;21081;-32
2023/05/23 19:04:39;;;;;;;16.87;15.07;;;23.20;66.10;;;;;;4752761;55;21564;-38
2023/05/23 19:09:40;;;;;;;18.52;16.62;;;23.20;66.20;;;;;;4785700;55;21496;-35
2023/05/23 19:14:41;;;;;;;18.15;16.25;;;23.20;66.10;;;;;;4742604;55;21093;-33
2023/05/23 19:19:42;;;;;;;17.70;15.80;;;23.20;66.10;;;;;;4740225;57;21088;-33
2023/05/23 19:24:43;;;;;;;17.85;16.05;;;23.20;66.10;;;;;;4985000;55;21448;-39
2023/05/23 19:29:44;;;;;;;18.62;16.60;;;23.20;66.10;;;;;;4896924;55;21515;-34
2023/05/23 19:34:45;;;;;;;18.00;16.20;;;23.20;66.10;;;;;;4861947;55;21005;-40
2023/05/23 19:39:46;;;;;;;18.10;16.20;;;23.20;66.10;;;;;;4751314;55;21109;-39
2023/05/23 19:44:49;;;;;;;17.60;15.75;;;23.20;66.10;;;;;;4838243;55;21082;-34
2023/05/23 19:49:50;;;;;;;16.90;15.23;;;23.20;66.80;;;;;;4832926;55;21464;-33
2023/05/23 19:54:51;;;;;;;16.65;14.95;;;23.20;66.10;;;;;;4740262;59;21041;-36
2023/05/23 19:59:52;;;;;;;17.85;16.05;;;23.20;66.00;;;;;;4806376;55;21463;-34
2023/05/23 20:04:53;;;;;;;17.62;15.82;;;23.20;66.00;;;;;;4773704;55;21085;-37
2023/05/23 20:09:54;;;;;;;17.45;15.57;;;23.20;66.00;;;;;;4824250;55;21104;-37
2023/05/23 20:14:56;;;;;;;17.98;15.50;;;23.20;66.00;;;;;;4860594;55;21399;-35
2023/05/23 20:19:57;;;;;;;18.12;16.33;;;23.20;66.00;;;;;;4740666;59;21033;-37
2023/05/23 20:24:59;;;;;;;17.45;15.60;;;23.20;66.00;;;;;;4743734;55;21014;-39
2023/05/23 20:30:00;;;;;;;16.52;14.85;;;23.20;66.00;;;;;;4796091;55;21560;-33
2023/05/23 20:35:01;;;;;;;17.23;15.27;;;23.20;66.00;;;;;;4764811;55;21049;-33
2023/05/23 20:40:02;;;;;;;20.08;15.85;;;23.20;66.00;;;;;;4739506;56;21097;-33
2023/05/23 20:45:08;;;;;;;16.58;14.85;;;23.20;65.90;;;;;;4882152;55;21502;-33
2023/05/23 20:50:11;;;;;;;17.48;15.68;;;23.20;65.90;;;;;;4824555;55;21496;-32
2023/05/23 20:55:13;;;;;;;16.10;14.50;;;23.20;65.90;;;;;;4784888;55;21069;-33
2023/05/23 21:00:14;;;;;;;17.12;15.35;;;23.20;65.90;;;;;;4750679;55;21554;-32
2023/05/23 21:05:15;;;;;;;15.70;14.15;;;23.20;65.80;;;;;;4779404;55;21009;-37
2023/05/23 21:10:16;;;;;;;17.83;15.20;;;23.20;65.80;;;;;;4775780;55;21504;-37
2023/05/23 21:15:18;;;;;;;16.15;14.50;;;23.20;65.80;;;;;;4800717;54;21519;-35
2023/05/23 21:20:20;;;;;;;16.05;14.45;;;23.20;65.80;;;;;;4742062;55;21141;-33
2023/05/23 21:25:21;;;;;;;15.93;14.32;;;23.20;65.80;;;;;;4745624;55;21499;-33
2023/05/23 21:30:21;;;;;;;16.67;14.87;;;23.20;65.90;;;;;;4740410;55;20985;-32
2023/05/23 21:35:22;;;;;;;15.60;14.10;;;23.20;66.50;;;;;;4741215;55;20993;-33
2023/05/23 21:40:24;;;;;;;16.08;14.38;;;23.20;65.90;;;;;;4881399;54;21081;-33
2023/05/23 21:45:25;;;;;;;15.85;14.18;;;23.20;65.80;;;;;;4796922;55;21659;-33
2023/05/23 21:50:26;;;;;;;20.23;15.10;;;23.20;65.90;;;;;;4747698;55;21077;-32
2023/05/23 21:55:30;;;;;;;16.67;14.93;;;23.20;65.80;;;;;;4927440;55;21483;-33
2023/05/23 22:00:31;;;;;;;15.75;14.18;;;23.20;65.90;;;;;;4760486;54;21559;-31
2023/05/23 22:05:31;;;;;;;15.80;14.05;;;23.20;65.90;;;;;;4739302;59;21090;-33
2023/05/23 22:10:35;;;;;;;15.77;14.18;;;23.20;65.90;;;;;;4885775;55;21529;-32
2023/05/23 22:15:36;;;;;;;15.15;13.65;;;23.20;65.90;;;;;;4765525;55;21109;-34
2023/05/23 22:20:37;;;;;;;15.02;13.50;;;23.20;65.90;;;;;;4962317;54;21017;-33
2023/05/23 22:25:38;;;;;;;16.58;14.90;;;23.20;65.90;;;;;;4739842;59;21025;-33
2023/05/23 22:30:38;;;;;;;16.48;14.77;;;23.20;65.90;;;;;;4845238;54;21041;-32
2023/05/23 22:35:40;;;;;;;15.20;13.60;;;23.20;65.90;;;;;;4802642;55;21499;-33
2023/05/23 22:40:44;;;;;;;15.18;13.57;;;23.20;65.90;;;;;;4872487;54;21477;-35
2023/05/23 22:45:45;;;;;;;15.35;13.75;;;23.20;65.90;;;;;;4951662;55;21076;-31
2023/05/23 22:50:46;;;;;;;16.08;14.38;;;23.20;65.90;;;;;;4841259;55;21057;-34
2023/05/23 22:55:48;;;;;;;15.80;14.30;;;23.20;65.40;;;;;;4840842;55;21570;-35
2023/05/23 23:00:49;;;;;;;16.20;14.60;;;23.20;65.90;;;;;;4963394;55;21033;-33
2023/05/23 23:05:49;;;;;;;15.90;14.30;;;23.20;65.90;;;;;;4774469;55;21040;-32
2023/05/23 23:10:50;;;;;;;14.87;13.30;;;23.20;65.90;;;;;;4740225;59;21061;-32
2023/05/23 23:15:51;;;;;;;15.55;13.77;;;23.20;66.00;;;;;;4759607;55;21504;-32
2023/05/23 23:20:53;;;;;;;15.45;13.82;;;23.20;65.90;;;;;;4876884;55;21074;-33
2023/05/23 23:25:54;;;;;;;14.63;13.18;;;23.20;65.90;;;;;;4804847;55;21594;-32
2023/05/23 23:30:55;;;;;;;14.80;13.40;;;23.20;65.90;;;;;;4760657;55;21539;-33
2023/05/23 23:35:57;;;;;;;14.05;12.68;;;23.20;65.90;;;;;;4751004;55;22224;-33
2023/05/23 23:40:58;;;;;;;14.80;13.30;;;23.20;65.90;;;;;;4739626;59;21160;-33
2023/05/23 23:45:58;;;;;;;15.82;14.27;;;23.20;66.00;;;;;;4739651;59;21145;-33
2023/05/23 23:51:00;;;;;;;14.43;13.02;;;23.20;65.80;;;;;;4749612;55;21057;-36
2023/05/23 23:56:01;;;;;;;15.13;13.60;;;23.20;66.50;;;;;;4900888;55;21401;-34
